createdAt,value
2018-08-22T00:00:03.429Z,44.03
2018-08-22T00:02:34.444Z,46.40
2018-08-22T00:05:03.853Z,51.37
2018-08-22T00:07:37.674Z,47.27
2018-08-22T00:10:07.357Z,45.20
2018-08-22T00:12:41.303Z,48.80
2018-08-22T00:15:10.675Z,47.07
2018-08-22T00:17:43.866Z,48.97
2018-08-22T00:20:13.262Z,53.90
2018-08-22T00:22:42.606Z,48.37
2018-08-22T00:25:15.624Z,53.70
2018-08-22T00:27:44.969Z,45.60
2018-08-22T00:30:14.765Z,51.80
2018-08-22T00:32:44.118Z,46.73
2018-08-22T00:35:22.814Z,50.43
2018-08-22T00:37:52.137Z,52.67
2018-08-22T00:40:25.301Z,45.93
2018-08-22T00:42:54.726Z,52.23
2018-08-22T00:45:28.198Z,49.03
2018-08-22T00:47:57.622Z,51.30
2018-08-22T00:53:00.573Z,49.83
2018-08-22T00:55:29.936Z,53.73
2018-08-22T00:58:03.137Z,55.70
2018-08-22T01:00:32.564Z,58.23
2018-08-22T01:03:04.293Z,58.10
2018-08-22T01:05:33.647Z,56.97
2018-08-22T01:08:03.006Z,58.70
2018-08-22T01:10:34.138Z,57.27
2018-08-22T01:13:03.589Z,55.00
2018-08-22T01:15:37.091Z,59.23
2018-08-22T01:18:06.445Z,57.53
2018-08-22T01:20:40.501Z,57.93
2018-08-22T01:23:09.865Z,61.07
2018-08-22T01:28:12.693Z,58.97
2018-08-22T01:30:42.129Z,58.70
2018-08-22T01:33:13.093Z,60.67
2018-08-22T01:35:42.425Z,55.90
2018-08-22T01:38:16.149Z,62.10
2018-08-22T01:40:45.524Z,60.53
2018-08-22T01:45:48.358Z,59.90
2018-08-22T01:48:17.702Z,61.80
2018-08-22T01:50:48.102Z,59.03
2018-08-22T01:53:17.811Z,62.87
2018-08-22T01:55:51.329Z,59.37
2018-08-22T01:58:20.693Z,58.90
2018-08-22T02:00:50.025Z,59.03
2018-08-22T02:03:23.677Z,64.53
2018-08-22T02:05:53.021Z,68.83
2018-08-22T02:08:29.838Z,70.47
2018-08-22T02:10:59.175Z,63.90
2018-08-22T02:13:30.929Z,66.83
2018-08-22T02:16:00.281Z,68.43
2018-08-22T02:18:33.441Z,65.60
2018-08-22T02:21:02.810Z,74.43
2018-08-22T02:23:35.798Z,70.90
2018-08-22T02:26:05.149Z,67.97
2018-08-22T02:28:34.605Z,65.50
2018-08-22T02:31:07.493Z,64.90
2018-08-22T02:33:36.876Z,69.37
2018-08-22T02:36:10.741Z,68.13
2018-08-22T02:38:40.097Z,64.27
2018-08-22T02:41:13.902Z,61.97
2018-08-22T02:43:43.324Z,65.60
2018-08-22T02:46:16.977Z,63.33
2018-08-22T02:48:51.569Z,66.50
2018-08-22T02:51:20.980Z,62.73
2018-08-22T02:53:50.393Z,59.60
2018-08-22T02:56:21.077Z,66.90
2018-08-22T02:58:50.728Z,65.40
2018-08-22T03:01:20.315Z,67.00
2018-08-22T03:03:53.514Z,61.07
2018-08-22T03:06:22.887Z,67.10
2018-08-22T03:08:55.590Z,70.60
2018-08-22T03:11:24.930Z,65.90
2018-08-22T03:13:54.348Z,73.50
2018-08-22T03:16:27.357Z,66.30
2018-08-22T03:19:02.657Z,65.57
2018-08-22T03:21:31.999Z,63.20
2018-08-22T03:24:01.390Z,64.13
2018-08-22T03:26:34.073Z,66.40
2018-08-22T03:29:03.425Z,69.50
2018-08-22T03:31:36.727Z,69.83
2018-08-22T03:34:06.139Z,65.47
2018-08-22T03:39:09.724Z,67.27
2018-08-22T03:44:12.773Z,63.00
2018-08-22T03:46:42.105Z,65.27
2018-08-22T03:49:13.641Z,65.30
2018-08-22T03:51:42.978Z,62.57
2018-08-22T03:54:16.941Z,63.93
2018-08-22T03:56:46.305Z,63.60
2018-08-22T04:01:49.089Z,60.83
2018-08-22T04:04:18.511Z,60.53
2018-08-22T04:06:51.800Z,61.00
2018-08-22T04:09:21.139Z,59.50
2018-08-22T04:11:54.979Z,62.83
2018-08-22T04:14:24.369Z,59.50
2018-08-22T04:16:57.234Z,58.87
2018-08-22T04:19:26.603Z,57.20
2018-08-22T04:21:55.965Z,62.63
2018-08-22T04:24:26.350Z,61.50
2018-08-22T04:26:55.686Z,58.73
2018-08-22T04:29:29.462Z,57.87
2018-08-22T04:31:58.796Z,56.53
2018-08-22T04:34:32.075Z,61.13
2018-08-22T04:37:01.445Z,61.40
2018-08-22T04:39:30.882Z,52.80
2018-08-22T04:42:02.719Z,50.53
2018-08-22T04:44:32.101Z,51.23
2018-08-22T04:47:05.901Z,60.13
2018-08-22T04:49:35.264Z,53.27
2018-08-22T04:52:09.066Z,55.83
2018-08-22T04:54:38.461Z,53.97
2018-08-22T04:57:07.902Z,56.53
2018-08-22T04:59:38.868Z,58.27
2018-08-22T05:02:08.198Z,52.07
2018-08-22T05:04:42.982Z,49.23
2018-08-22T05:07:12.321Z,52.30
2018-08-22T05:09:46.432Z,48.03
2018-08-22T05:12:15.893Z,48.63
2018-08-22T05:14:49.801Z,50.73
2018-08-22T05:17:19.140Z,51.17
2018-08-22T05:19:52.822Z,54.53
2018-08-22T05:22:22.165Z,45.27
2018-08-22T05:24:52.121Z,45.87
2018-08-22T05:27:22.233Z,46.60
2018-08-22T05:29:51.645Z,51.67
2018-08-22T05:32:26.407Z,46.23
2018-08-22T05:34:55.814Z,49.83
2018-08-22T05:37:28.848Z,47.90
2018-08-22T05:39:58.217Z,40.20
2018-08-22T05:42:32.005Z,39.03
2018-08-22T05:45:01.418Z,42.50
2018-08-22T05:47:32.525Z,36.67
2018-08-22T05:50:03.665Z,32.03
2018-08-22T05:52:32.993Z,36.40
2018-08-22T05:55:06.841Z,34.30
2018-08-22T05:57:36.491Z,35.30
2018-08-22T06:00:08.257Z,34.43
2018-08-22T06:02:37.582Z,36.50
2018-08-22T06:05:07.447Z,31.30
2018-08-22T06:07:40.324Z,27.20
2018-08-22T06:10:09.684Z,27.40
2018-08-22T06:12:42.938Z,32.37
2018-08-22T06:15:12.336Z,28.03
2018-08-22T06:18:48.969Z,25.10
2018-08-22T06:21:18.341Z,27.30
2018-08-22T06:23:48.117Z,24.23
2018-08-22T06:26:18.900Z,26.67
2018-08-22T06:28:48.324Z,27.50
2018-08-22T06:31:22.267Z,29.70
2018-08-22T06:33:51.590Z,29.37
2018-08-22T06:36:25.477Z,25.23
2018-08-22T06:38:54.853Z,26.43
2018-08-22T06:41:28.389Z,31.87
2018-08-22T06:43:57.729Z,34.23
2018-08-22T06:49:00.545Z,27.60
2018-08-22T06:51:30.234Z,31.20
2018-08-22T06:53:59.582Z,22.57
2018-08-22T06:56:29.001Z,24.07
2018-08-22T06:58:58.354Z,22.80
2018-08-22T07:01:31.417Z,23.57
2018-08-22T07:04:00.761Z,24.60
2018-08-22T07:06:34.791Z,24.53
2018-08-22T07:09:06.290Z,22.27
2018-08-22T07:11:38.462Z,25.87
2018-08-22T07:14:08.277Z,22.53
2018-08-22T07:16:40.475Z,26.83
2018-08-22T07:19:09.813Z,23.37
2018-08-22T07:21:39.214Z,21.57
2018-08-22T07:24:10.154Z,22.23
2018-08-22T07:26:39.542Z,22.20
2018-08-22T07:29:08.953Z,21.03
2018-08-22T07:31:38.697Z,22.00
2018-08-22T07:34:08.062Z,21.70
2018-08-22T07:36:42.106Z,22.07
2018-08-22T07:39:13.109Z,21.93
2018-08-22T07:41:46.934Z,24.57
2018-08-22T07:44:16.269Z,27.50
2018-08-22T07:46:46.846Z,23.63
2018-08-22T07:49:16.218Z,24.60
2018-08-22T07:51:45.545Z,24.43
2018-08-22T07:54:17.438Z,20.83
2018-08-22T07:56:46.821Z,24.17
2018-08-22T07:59:21.540Z,28.77
2018-08-22T08:01:51.067Z,23.97
2018-08-22T08:04:24.812Z,24.73
2018-08-22T08:06:54.257Z,23.47
2018-08-22T08:09:25.767Z,22.73
2018-08-22T08:11:55.141Z,21.07
2018-08-22T08:14:24.482Z,20.27
2018-08-22T08:16:58.434Z,20.93
2018-08-22T08:19:27.763Z,21.37
2018-08-22T08:21:57.518Z,27.57
2018-08-22T08:24:26.901Z,21.60
2018-08-22T08:26:56.394Z,23.27
2018-08-22T08:29:31.105Z,22.23
2018-08-22T08:32:00.470Z,22.70
2018-08-22T08:34:34.299Z,20.67
2018-08-22T08:37:03.694Z,23.17
2018-08-22T08:39:33.512Z,22.30
2018-08-22T08:42:02.858Z,27.17
2018-08-22T08:44:32.241Z,22.10
2018-08-22T08:47:01.629Z,21.47
2018-08-22T08:49:31.041Z,25.13
2018-08-22T08:52:01.650Z,23.83
2018-08-22T08:54:34.834Z,23.43
2018-08-22T08:57:04.350Z,22.23
2018-08-22T08:59:38.131Z,27.77
2018-08-22T09:02:07.498Z,23.30
2018-08-22T09:04:40.503Z,22.13
2018-08-22T09:07:09.891Z,22.13
2018-08-22T09:12:12.712Z,25.37
2018-08-22T09:14:42.071Z,22.03
2018-08-22T09:17:13.975Z,19.83
2018-08-22T09:19:43.410Z,26.40
2018-08-22T09:22:14.671Z,21.53
2018-08-22T09:24:44.866Z,21.70
2018-08-22T09:27:14.256Z,24.70
2018-08-22T09:29:46.274Z,23.57
2018-08-22T09:32:15.625Z,24.77
2018-08-22T09:34:48.537Z,28.10
2018-08-22T09:37:17.916Z,21.40
2018-08-22T09:39:47.294Z,20.97
2018-08-22T09:42:18.386Z,20.70
2018-08-22T09:44:47.725Z,20.37
2018-08-22T09:47:17.155Z,16.37
2018-08-22T09:49:46.512Z,23.47
2018-08-22T09:52:15.861Z,20.00
2018-08-22T09:54:58.497Z,24.57
2018-08-22T09:57:31.912Z,22.33
2018-08-22T10:00:01.352Z,23.13
2018-08-22T10:02:35.178Z,21.80
2018-08-22T10:05:04.583Z,17.83
2018-08-22T10:07:37.855Z,19.43
2018-08-22T10:10:07.205Z,19.73
2018-08-22T10:12:40.287Z,14.87
2018-08-22T10:15:09.653Z,16.57
2018-08-22T10:17:39.298Z,18.70
2018-08-22T10:20:09.557Z,17.27
2018-08-22T10:22:38.893Z,12.80
2018-08-22T10:25:12.921Z,13.33
2018-08-22T10:27:42.402Z,13.50
2018-08-22T10:30:13.274Z,15.10
2018-08-22T10:32:42.979Z,14.80
2018-08-22T10:35:12.291Z,14.50
2018-08-22T10:37:42.581Z,16.67
2018-08-22T10:40:11.919Z,16.30
2018-08-22T10:42:41.249Z,20.40
2018-08-22T10:45:14.350Z,13.07
2018-08-22T10:47:43.797Z,15.17
2018-08-22T10:50:17.626Z,15.80
2018-08-22T10:52:46.957Z,15.80
2018-08-22T10:55:16.294Z,18.83
2018-08-22T10:57:45.682Z,16.73
2018-08-22T11:00:15.026Z,18.57
2018-08-22T11:02:44.918Z,20.07
2018-08-22T11:05:14.294Z,18.30
2018-08-22T11:07:43.729Z,18.67
2018-08-22T11:10:17.529Z,15.97
2018-08-22T11:12:47.145Z,19.63
2018-08-22T11:15:21.717Z,16.57
2018-08-22T11:17:51.122Z,21.40
2018-08-22T11:20:24.842Z,23.93
2018-08-22T11:23:11.406Z,22.90
2018-08-22T11:26:01.525Z,18.80
2018-08-22T11:28:48.016Z,16.53
2018-08-22T11:31:34.201Z,18.93
2018-08-22T11:34:20.809Z,20.73
2018-08-22T11:37:05.497Z,19.57
2018-08-22T11:39:35.050Z,14.00
2018-08-22T11:42:04.861Z,5.23
2018-08-22T11:44:34.241Z,7.27
2018-08-22T11:47:03.606Z,5.77
2018-08-22T11:49:33.299Z,9.13
2018-08-22T11:52:03.371Z,13.03
2018-08-22T11:54:36.308Z,9.97
2018-08-22T11:57:05.670Z,14.50
2018-08-22T11:59:38.805Z,12.70
2018-08-22T12:02:08.230Z,10.27
2018-08-22T12:04:44.715Z,10.73
2018-08-22T12:07:14.042Z,8.63
2018-08-22T12:09:46.998Z,7.30
2018-08-22T12:12:16.342Z,7.77
2018-08-22T12:14:46.097Z,7.33
2018-08-22T12:17:15.495Z,6.40
2018-08-22T12:19:44.854Z,9.20
2018-08-22T12:22:15.402Z,8.83
2018-08-22T12:24:44.753Z,8.47
2018-08-22T12:27:14.114Z,12.77
2018-08-22T12:29:46.322Z,6.80
2018-08-22T12:32:15.646Z,8.60
2018-08-22T12:34:45.378Z,12.53
2018-08-22T12:37:14.845Z,6.50
2018-08-22T12:39:44.253Z,7.10
2018-08-22T12:42:14.166Z,6.87
2018-08-22T12:44:43.771Z,7.57
2018-08-22T12:47:13.110Z,11.43
2018-08-22T12:49:45.539Z,8.03
2018-08-22T12:52:14.947Z,9.60
2018-08-22T12:54:48.398Z,10.80
2018-08-22T12:57:17.875Z,10.43
2018-08-22T12:59:47.347Z,8.27
2018-08-22T13:02:16.742Z,8.53
2018-08-22T13:04:46.167Z,9.20
2018-08-22T13:07:15.454Z,9.10
2018-08-22T13:09:44.853Z,9.13
2018-08-22T13:12:14.186Z,7.33
2018-08-22T13:14:43.832Z,11.13
2018-08-22T13:17:13.594Z,7.17
2018-08-22T13:19:42.971Z,10.50
2018-08-22T13:22:12.293Z,8.57
2018-08-22T13:24:41.706Z,8.63
2018-08-22T13:27:11.013Z,11.37
2018-08-22T13:29:44.886Z,8.63
2018-08-22T13:32:14.209Z,7.93
2018-08-22T13:34:47.511Z,7.77
2018-08-22T13:37:16.878Z,8.50
2018-08-22T13:39:46.330Z,8.83
2018-08-22T13:42:17.127Z,8.93
2018-08-22T13:44:46.504Z,9.87
2018-08-22T13:47:16.251Z,10.33
2018-08-22T13:49:45.638Z,6.90
2018-08-22T13:52:14.968Z,6.83
2018-08-22T13:54:44.949Z,7.20
2018-08-22T13:57:14.314Z,7.30
2018-08-22T13:59:43.710Z,10.13
2018-08-22T14:02:13.090Z,8.97
2018-08-22T14:04:42.744Z,10.30
2018-08-22T14:07:12.073Z,6.47
2018-08-22T14:09:41.822Z,9.63
2018-08-22T14:12:11.182Z,6.47
2018-08-22T14:14:40.518Z,9.13
2018-08-22T14:17:14.546Z,9.00
2018-08-22T14:19:43.870Z,8.83
2018-08-22T14:22:14.433Z,8.43
2018-08-22T14:24:43.762Z,10.00
2018-08-22T14:27:13.108Z,9.00
2018-08-22T14:29:46.191Z,10.50
2018-08-22T14:32:15.585Z,8.50
2018-08-22T14:34:44.917Z,9.20
2018-08-22T14:37:15.065Z,8.33
2018-08-22T14:39:44.397Z,9.13
2018-08-22T14:42:14.958Z,9.93
2018-08-22T14:44:44.286Z,7.63
2018-08-22T14:47:13.625Z,9.13
2018-08-22T14:49:43.684Z,9.37
2018-08-22T14:52:13.070Z,9.67
2018-08-22T14:54:42.389Z,8.07
2018-08-22T14:57:11.713Z,9.73
2018-08-22T14:59:41.067Z,7.83
2018-08-22T15:02:10.426Z,7.37
2018-08-22T15:04:43.256Z,8.40
2018-08-22T15:07:12.591Z,8.60
2018-08-22T15:09:43.865Z,6.77
2018-08-22T15:12:13.245Z,8.07
2018-08-22T15:14:42.578Z,9.30
2018-08-22T15:17:11.954Z,7.67
2018-08-22T15:19:41.313Z,7.60
2018-08-22T15:22:10.977Z,8.00
2018-08-22T15:24:42.137Z,10.17
2018-08-22T15:27:11.479Z,7.23
2018-08-22T15:29:41.433Z,8.97
2018-08-22T15:32:10.817Z,7.90
2018-08-22T15:34:55.022Z,7.33
2018-08-22T15:37:26.613Z,8.27
2018-08-22T15:39:55.936Z,7.67
2018-08-22T15:42:25.345Z,6.77
2018-08-22T15:44:54.945Z,7.03
2018-08-22T15:47:24.369Z,5.97
2018-08-22T15:49:53.658Z,7.83
2018-08-22T15:52:24.886Z,6.60
2018-08-22T15:55:09.794Z,8.20
2018-08-22T15:57:58.234Z,7.13
2018-08-22T16:00:38.996Z,6.00
2018-08-22T16:03:09.352Z,7.83
2018-08-22T16:05:39.770Z,9.07
2018-08-22T16:08:11.337Z,7.40
2018-08-22T16:10:40.670Z,8.97
2018-08-22T16:13:17.274Z,4.67
2018-08-22T16:15:49.053Z,5.37
2018-08-22T16:18:18.474Z,5.27
2018-08-22T16:20:56.335Z,9.57
2018-08-22T16:23:29.569Z,5.70
2018-08-22T16:26:06.305Z,5.30
2018-08-22T16:28:51.701Z,6.97
2018-08-22T16:31:21.961Z,5.37
2018-08-22T16:33:51.332Z,7.30
2018-08-22T16:36:25.031Z,6.17
2018-08-22T16:38:54.513Z,4.83
2018-08-22T16:41:27.870Z,4.27
2018-08-22T16:43:57.252Z,6.13
2018-08-22T16:46:26.582Z,5.47
2018-08-22T16:48:57.113Z,5.77
2018-08-22T16:51:26.475Z,5.07
2018-08-22T16:54:04.884Z,4.63
2018-08-22T16:56:34.990Z,4.93
2018-08-22T16:59:09.509Z,5.83
2018-08-22T17:01:45.769Z,8.13
2018-08-22T17:04:15.298Z,5.47
2018-08-22T17:06:47.097Z,5.27
2018-08-22T17:09:16.466Z,5.00
2018-08-22T17:11:45.799Z,4.23
2018-08-22T17:14:16.902Z,6.87
2018-08-22T17:16:46.230Z,6.67
2018-08-22T17:21:48.989Z,6.63
2018-08-22T17:24:18.405Z,7.03
2018-08-22T17:26:48.026Z,5.13
2018-08-22T17:29:18.211Z,3.53
2018-08-22T17:34:35.758Z,5.00
2018-08-22T17:37:09.926Z,3.47
2018-08-22T17:39:39.281Z,3.87
2018-08-22T17:42:08.640Z,5.10
2018-08-22T17:44:42.778Z,4.33
2018-08-22T17:47:12.102Z,3.27
2018-08-22T17:49:41.562Z,4.07
2018-08-22T17:52:12.209Z,3.30
2018-08-22T17:54:41.598Z,3.07
2018-08-22T17:57:22.881Z,3.80
2018-08-22T17:59:52.254Z,5.03
2018-08-22T18:02:21.587Z,4.20
2018-08-22T18:05:03.919Z,5.73
2018-08-22T18:07:37.255Z,3.77
2018-08-22T18:10:06.666Z,3.07
2018-08-22T18:12:39.834Z,3.77
2018-08-22T18:15:09.264Z,4.03
2018-08-22T18:17:38.587Z,3.00
2018-08-22T18:20:09.783Z,4.40
2018-08-22T18:22:39.822Z,4.53
2018-08-22T18:25:15.881Z,3.03
2018-08-22T18:27:45.657Z,5.20
2018-08-22T18:30:15.363Z,4.20
2018-08-22T18:32:46.109Z,4.60
2018-08-22T18:35:15.494Z,3.83
2018-08-22T18:37:44.870Z,3.23
2018-08-22T18:40:20.494Z,3.83
2018-08-22T18:42:52.861Z,2.83
2018-08-22T18:45:26.474Z,4.73
2018-08-22T18:47:55.865Z,4.27
2018-08-22T18:50:25.262Z,4.63
2018-08-22T18:52:59.992Z,5.97
2018-08-22T18:55:35.910Z,5.03
2018-08-22T18:58:06.178Z,4.27
2018-08-22T19:00:39.551Z,3.87
2018-08-22T19:03:08.869Z,4.23
2018-08-22T19:05:39.865Z,5.07
2018-08-22T19:08:15.349Z,4.77
2018-08-22T19:10:47.516Z,5.47
2018-08-22T19:13:22.051Z,6.53
2018-08-22T19:15:54.889Z,4.03
2018-08-22T19:18:27.670Z,3.43
2018-08-22T19:20:59.589Z,5.40
2018-08-22T19:23:29.196Z,2.90
2018-08-22T19:26:03.404Z,4.40
2018-08-22T19:28:41.821Z,3.77
2018-08-22T19:31:11.177Z,3.87
2018-08-22T19:33:40.510Z,3.50
2018-08-22T19:36:10.241Z,3.40
2018-08-22T19:38:39.580Z,6.27
2018-08-22T19:41:25.550Z,5.47
2018-08-22T19:43:54.970Z,4.20
2018-08-22T19:46:24.364Z,3.13
2018-08-22T19:48:58.305Z,3.50
2018-08-22T19:51:27.670Z,3.90
2018-08-22T19:54:07.902Z,4.17
2018-08-22T19:56:41.448Z,4.40
2018-08-22T19:59:10.909Z,3.73
2018-08-22T20:01:40.266Z,5.20
2018-08-22T20:04:09.597Z,3.30
2018-08-22T20:06:38.981Z,4.37
2018-08-22T20:09:14.019Z,4.53
2018-08-22T20:11:43.383Z,4.63
2018-08-22T20:14:14.115Z,5.47
2018-08-22T20:16:43.482Z,7.23
2018-08-22T20:19:13.070Z,2.90
2018-08-22T20:21:43.267Z,3.33
2018-08-22T20:24:13.420Z,5.80
2018-08-22T20:26:55.311Z,4.80
2018-08-22T20:29:26.237Z,4.70
2018-08-22T20:31:55.657Z,3.73
2018-08-22T20:34:24.988Z,4.37
2018-08-22T20:36:54.378Z,4.07
2018-08-22T20:39:23.728Z,4.53
2018-08-22T20:41:58.025Z,4.13
2018-08-22T20:44:27.442Z,4.93
2018-08-22T20:47:03.478Z,4.37
2018-08-22T20:49:32.801Z,3.83
2018-08-22T20:52:02.161Z,2.80
2018-08-22T20:54:31.552Z,3.07
2018-08-22T20:57:01.322Z,3.13
2018-08-22T20:59:30.649Z,4.17
2018-08-22T21:02:04.171Z,3.40
2018-08-22T21:04:34.026Z,3.57
2018-08-22T21:07:04.902Z,3.43
2018-08-22T21:09:34.237Z,4.43
2018-08-22T21:12:04.867Z,4.40
2018-08-22T21:14:34.264Z,3.60
2018-08-22T21:17:03.618Z,4.50
2018-08-22T21:19:34.292Z,9.53
2018-08-22T21:22:08.698Z,3.90
2018-08-22T21:24:38.497Z,8.07
2018-08-22T21:27:07.880Z,4.27
2018-08-22T21:29:37.205Z,8.00
2018-08-22T21:32:06.918Z,4.63
2018-08-22T21:34:36.273Z,4.27
2018-08-22T21:37:21.640Z,5.03
2018-08-22T21:39:51.030Z,6.03
2018-08-22T21:42:25.637Z,6.43
2018-08-22T21:44:55.653Z,4.53
2018-08-22T21:47:25.090Z,6.50
2018-08-22T21:49:54.433Z,4.90
2018-08-22T21:52:25.511Z,4.03
2018-08-22T21:54:54.926Z,5.50
2018-08-22T21:57:28.125Z,4.00
2018-08-22T22:00:03.132Z,2.93
2018-08-22T22:02:36.109Z,6.10
2018-08-22T22:05:05.519Z,4.87
2018-08-22T22:07:38.818Z,3.70
2018-08-22T22:10:11.417Z,5.30
2018-08-22T22:12:42.095Z,3.20
2018-08-22T22:15:16.645Z,3.23
2018-08-22T22:17:46.030Z,6.33
2018-08-22T22:20:15.480Z,4.50
2018-08-22T22:22:44.811Z,4.87
2018-08-22T22:25:14.178Z,3.13
2018-08-22T22:27:44.095Z,4.07
2018-08-22T22:30:17.899Z,5.23
2018-08-22T22:32:47.291Z,2.90
2018-08-22T22:35:27.146Z,3.97
2018-08-22T22:38:06.316Z,4.13
2018-08-22T22:40:39.829Z,4.47
2018-08-22T22:43:13.094Z,4.40
2018-08-22T22:45:46.905Z,7.47
2018-08-22T22:48:33.602Z,3.60
2018-08-22T22:51:08.372Z,6.83
2018-08-22T22:53:37.854Z,5.03
2018-08-22T22:56:07.518Z,6.37
2018-08-22T22:58:37.460Z,5.17
2018-08-22T23:01:07.550Z,7.70
2018-08-22T23:03:37.477Z,4.17
2018-08-22T23:06:06.838Z,3.03
2018-08-22T23:08:36.237Z,4.27
2018-08-22T23:11:06.005Z,3.37
2018-08-22T23:13:35.331Z,3.20
2018-08-22T23:16:09.254Z,4.50
2018-08-22T23:18:38.699Z,4.07
2018-08-22T23:21:12.122Z,3.40
2018-08-22T23:23:41.484Z,3.23
2018-08-22T23:26:19.598Z,4.10
2018-08-22T23:28:48.965Z,3.30
2018-08-22T23:31:22.780Z,6.97
2018-08-22T23:33:52.142Z,6.17
2018-08-22T23:36:26.000Z,5.07
2018-08-22T23:38:55.416Z,3.93
2018-08-22T23:41:29.043Z,5.97
2018-08-22T23:43:58.485Z,5.63
2018-08-22T23:46:31.942Z,5.97
2018-08-22T23:49:01.326Z,3.30
2018-08-22T23:51:30.665Z,3.93
2018-08-22T23:54:02.849Z,4.57
2018-08-22T23:56:32.220Z,3.80
2018-08-22T23:59:06.182Z,3.30
